Terminal Aerodrome Forecast
Issued by NWS

Home | Current Version | Previous Version | Text Only | Print | Product List | Glossary On
Versions: 1 2 3 4 5 6 7 8 9 10 11 12 13 14 15 16 17 18
000
FTUS46 KSGX 210500
TAFPSP
TAF
KPSP 210520Z 2106/2206 VRB05KT P6SM SCT150
     FM211900 10007KT P6SM VCTS SCT090CB BKN150 PROB30 2119/2124
      -TSRA BKN080CB
     FM220000 VRB06KT P6SM SCT100 BKN150
     FM220300 32008KT P6SM SCT150=

USA.gov is the U.S. government's official web portal to all federal, state and local government web resources and services.